Time;durP1;ratioP1;P1;durP2;ratioP2;P2;SDS_P1;SDS_P2;PMS_P1;PMS_P2;Temp;Humidity;BMP_temperature;BMP_pressure;BME280_temperature;BME280_humidity;BME280_pressure;Samples;Min_cycle;Max_cycle;Signal;HPM_P1;HPM_P2
2023/03/08 00:02:17;;;;;;;;;;;;;;;;;;4946509;29;19941;-88
2023/03/08 00:04:43;;;;;;;;;;;;;;;;;;4937414;29;20440;-89
2023/03/08 00:07:09;;;;;;;;;;;;;;;;;;4960039;29;19931;-89
2023/03/08 00:09:35;;;;;;;;;;;;;;;;;;4962202;29;19974;-89
2023/03/08 00:12:01;;;;;;;;;;;;;;;;;;4946138;29;19922;-88
2023/03/08 00:14:27;;;;;;;;;;;;;;;;;;4962747;29;19923;-88
2023/03/08 00:16:53;;;;;;;;;;;;;;;;;;4957651;29;20312;-88
2023/03/08 00:19:19;;;;;;;;;;;;;;;;;;4974953;29;19950;-89
2023/03/08 00:21:45;;;;;;;;;;;;;;;;;;4959686;29;19913;-88
2023/03/08 00:24:15;;;;;;;;;;;;;;;;;;4962520;28;19930;-87
2023/03/08 00:26:42;;;;;;;;;;;;;;;;;;4959562;29;20312;-89
2023/03/08 00:29:08;;;;;;;;;;;;;;;;;;4954761;29;19923;-88
2023/03/08 00:31:34;;;;;;;;;;;;;;;;;;4946577;29;19945;-89
2023/03/08 00:34:00;;;;;;;;;;;;;;;;;;4946460;29;19922;-90
2023/03/08 00:36:33;;;;;;;;;;;;;;;;;;4946559;29;19922;-89
2023/03/08 00:38:59;;;;;;;;;;;;;;;;;;4946042;29;20277;-88
2023/03/08 00:41:36;;;;;;;;;;;;;;;;;;4957069;29;19922;-88
2023/03/08 00:44:06;;;;;;;;;;;;;;;;;;4960169;29;19922;-89
2023/03/08 00:46:43;;;;;;;;;;;;;;;;;;4963769;29;19929;-89
2023/03/08 00:49:09;;;;;;;;;;;;;;;;;;4946483;29;19923;-88
2023/03/08 00:51:35;;;;;;;;;;;;;;;;;;4946579;29;19923;-89
2023/03/08 00:54:01;;;;;;;;;;;;;;;;;;4943667;29;19990;-89
2023/03/08 00:56:27;;;;;;;;;;;;;;;;;;4944082;29;20018;-88
2023/03/08 00:59:11;;;;;;;;;;;;;;;;;;4941411;29;20003;-89
2023/03/08 01:01:37;;;;;;;;;;;;;;;;;;4967394;29;19930;-89
2023/03/08 01:04:08;;;;;;;;;;;;;;;;;;4970875;29;19907;-88
2023/03/08 01:06:37;;;;;;;;;;;;;;;;;;4971143;29;19973;-88
2023/03/08 01:09:20;;;;;;;;;;;;;;;;;;4956512;29;19976;-88
2023/03/08 01:11:46;;;;;;;;;;;;;;;;;;4960436;29;19990;-88
2023/03/08 01:14:12;;;;;;;;;;;;;;;;;;4961969;29;19958;-89
2023/03/08 01:16:38;;;;;;;;;;;;;;;;;;4949642;29;19923;-89
2023/03/08 01:19:04;;;;;;;;;;;;;;;;;;4949055;29;19927;-89
2023/03/08 01:21:30;;;;;;;;;;;;;;;;;;4949549;29;19930;-89
2023/03/08 01:23:56;;;;;;;;;;;;;;;;;;4949787;29;20038;-89
2023/03/08 01:26:29;;;;;;;;;;;;;;;;;;4964667;29;20013;-88
2023/03/08 01:28:55;;;;;;;;;;;;;;;;;;4948846;29;19922;-88
2023/03/08 01:31:21;;;;;;;;;;;;;;;;;;4937783;29;19962;-87
2023/03/08 01:33:47;;;;;;;;;;;;;;;;;;4947514;29;19926;-88
2023/03/08 01:36:16;;;;;;;;;;;;;;;;;;4949630;29;19923;-88
2023/03/08 01:38:42;;;;;;;;;;;;;;;;;;4949946;29;19930;-89
2023/03/08 01:41:08;;;;;;;;;;;;;;;;;;4950368;29;19929;-88
2023/03/08 01:43:34;;;;;;;;;;;;;;;;;;4950593;29;19922;-88
2023/03/08 01:46:00;;;;;;;;;;;;;;;;;;4960773;29;20379;-89
2023/03/08 01:48:27;;;;;;;;;;;;;;;;;;4957900;29;19950;-89
2023/03/08 01:50:53;;;;;;;;;;;;;;;;;;4951424;29;19927;-89
2023/03/08 01:53:22;;;;;;;;;;;;;;;;;;4976929;29;20354;-89
2023/03/08 01:55:54;;;;;;;;;;;;;;;;;;4977083;28;19952;-89
2023/03/08 01:58:24;;;;;;;;;;;;;;;;;;4977570;29;19950;-88
2023/03/08 02:01:08;;;;;;;;;;;;;;;;;;4976010;29;19926;-88
2023/03/08 02:03:34;;;;;;;;;;;;;;;;;;4949239;29;20066;-88
2023/03/08 02:06:00;;;;;;;;;;;;;;;;;;4948998;29;19923;-89
2023/03/08 02:08:26;;;;;;;;;;;;;;;;;;4948259;29;19929;-89
2023/03/08 02:10:52;;;;;;;;;;;;;;;;;;4949059;29;19922;-88
2023/03/08 02:13:17;;;;;;;;;;;;;;;;;;4949111;29;19989;-89
2023/03/08 02:15:43;;;;;;;;;;;;;;;;;;4949116;29;20328;-88
2023/03/08 02:18:09;;;;;;;;;;;;;;;;;;4949468;29;19927;-88
2023/03/08 02:20:35;;;;;;;;;;;;;;;;;;4949301;29;19961;-88
2023/03/08 02:23:01;;;;;;;;;;;;;;;;;;4965285;29;19923;-88
2023/03/08 02:25:27;;;;;;;;;;;;;;;;;;4949698;29;20456;-88
2023/03/08 02:27:53;;;;;;;;;;;;;;;;;;4933742;29;19927;-88
2023/03/08 02:30:20;;;;;;;;;;;;;;;;;;4967208;29;19998;-88
2023/03/08 02:32:47;;;;;;;;;;;;;;;;;;4989453;28;19929;-88
2023/03/08 02:35:15;;;;;;;;;;;;;;;;;;4958286;28;19923;-88
2023/03/08 02:37:45;;;;;;;;;;;;;;;;;;4973768;29;19930;-89
2023/03/08 02:40:35;;;;;;;;;;;;;;;;;;4972923;29;19927;-89
2023/03/08 02:43:05;;;;;;;;;;;;;;;;;;4988550;28;19923;-89
2023/03/08 02:45:34;;;;;;;;;;;;;;;;;;4964066;29;19930;-88
2023/03/08 02:48:00;;;;;;;;;;;;;;;;;;4960982;29;19923;-88
2023/03/08 02:50:26;;;;;;;;;;;;;;;;;;4960190;29;19923;-88
2023/03/08 02:52:52;;;;;;;;;;;;;;;;;;4960858;29;19929;-88
2023/03/08 02:55:18;;;;;;;;;;;;;;;;;;4960504;29;19926;-89
2023/03/08 02:57:45;;;;;;;;;;;;;;;;;;4967016;29;19927;-88
2023/03/08 03:00:12;;;;;;;;;;;;;;;;;;4988692;28;19934;-88
2023/03/08 03:02:39;;;;;;;;;;;;;;;;;;4957715;29;19923;-87
2023/03/08 03:05:06;;;;;;;;;;;;;;;;;;4968097;29;19923;-87
2023/03/08 03:07:32;;;;;;;;;;;;;;;;;;4984484;28;19923;-88
2023/03/08 03:10:11;;;;;;;;;;;;;;;;;;4958663;29;19927;-88
2023/03/08 03:12:37;;;;;;;;;;;;;;;;;;4973119;29;20003;-87
2023/03/08 03:15:06;;;;;;;;;;;;;;;;;;4973517;29;19923;-88
2023/03/08 03:17:36;;;;;;;;;;;;;;;;;;4973279;29;19923;-89
2023/03/08 03:20:19;;;;;;;;;;;;;;;;;;;;;
2023/03/08 03:22:49;;;;;;;;;;;;;;;;;;4958590;29;19954;-89
2023/03/08 03:25:21;;;;;;;;;;;;;;;;;;4957273;29;19923;-88
2023/03/08 03:27:50;;;;;;;;;;;;;;;;;;4971875;29;19978;-87
2023/03/08 03:30:19;;;;;;;;;;;;;;;;;;4977514;28;19930;-88
2023/03/08 03:32:45;;;;;;;;;;;;;;;;;;4960432;29;19922;-89
2023/03/08 03:35:11;;;;;;;;;;;;;;;;;;4968754;29;19922;-88
2023/03/08 03:37:37;;;;;;;;;;;;;;;;;;4960909;28;19922;-88
2023/03/08 03:40:08;;;;;;;;;;;;;;;;;;4960560;29;19934;-89
2023/03/08 03:42:53;;;;;;;;;;;;;;;;;;4976709;28;19961;-88
2023/03/08 03:45:22;;;;;;;;;;;;;;;;;;4960948;29;19966;-88
2023/03/08 03:47:54;;;;;;;;;;;;;;;;;;4960702;29;19922;-88
2023/03/08 03:50:35;;;;;;;;;;;;;;;;;;4976063;29;19922;-89
2023/03/08 03:53:01;;;;;;;;;;;;;;;;;;4971735;29;19923;-87
2023/03/08 03:55:27;;;;;;;;;;;;;;;;;;4946645;29;19989;-88
2023/03/08 03:57:53;;;;;;;;;;;;;;;;;;4945963;29;20388;-88
2023/03/08 04:00:20;;;;;;;;;;;;;;;;;;4945597;29;20020;-88
2023/03/08 04:02:46;;;;;;;;;;;;;;;;;;4945929;29;19930;-88
2023/03/08 04:05:13;;;;;;;;;;;;;;;;;;4946376;29;19922;-88
2023/03/08 04:07:48;;;;;;;;;;;;;;;;;;4957776;29;19946;-88
2023/03/08 04:10:14;;;;;;;;;;;;;;;;;;4958314;29;19930;-86
2023/03/08 04:12:43;;;;;;;;;;;;;;;;;;4958321;29;19946;-88
2023/03/08 04:15:09;;;;;;;;;;;;;;;;;;4974996;28;19923;-88
2023/03/08 04:17:38;;;;;;;;;;;;;;;;;;4974423;29;19966;-87
2023/03/08 04:20:13;;;;;;;;;;;;;;;;;;4958420;29;19993;-88
2023/03/08 04:25:31;;;;;;;;;;;;;;;;;;4960741;29;20311;-88
2023/03/08 04:27:57;;;;;;;;;;;;;;;;;;4945530;29;20024;-87
2023/03/08 04:30:23;;;;;;;;;;;;;;;;;;4945731;29;20312;-86
2023/03/08 04:32:50;;;;;;;;;;;;;;;;;;4952906;29;19962;-87
2023/03/08 04:35:17;;;;;;;;;;;;;;;;;;4974122;29;19988;-88
2023/03/08 04:37:44;;;;;;;;;;;;;;;;;;4958629;29;19927;-88
2023/03/08 04:40:17;;;;;;;;;;;;;;;;;;4969995;28;19930;-87
2023/03/08 04:42:47;;;;;;;;;;;;;;;;;;4959062;29;19923;-87
2023/03/08 04:45:14;;;;;;;;;;;;;;;;;;4959130;29;19923;-87
2023/03/08 04:47:40;;;;;;;;;;;;;;;;;;4958435;29;19946;-87
2023/03/08 04:50:07;;;;;;;;;;;;;;;;;;4958298;29;19922;-87
2023/03/08 04:52:39;;;;;;;;;;;;;;;;;;4974987;29;19922;-87
2023/03/08 04:55:08;;;;;;;;;;;;;;;;;;4959302;29;19946;-87
2023/03/08 04:57:41;;;;;;;;;;;;;;;;;;4969060;29;19926;-87
2023/03/08 05:00:09;;;;;;;;;;;;;;;;;;4969140;29;19930;-87
2023/03/08 05:02:34;;;;;;;;;;;;;;;;;;4943425;29;19926;-88
2023/03/08 05:05:00;;;;;;;;;;;;;;;;;;4944764;29;19945;-87
2023/03/08 05:07:26;;;;;;;;;;;;;;;;;;4938307;29;19911;-88
2023/03/08 05:09:52;;;;;;;;;;;;;;;;;;4934191;29;19914;-88
2023/03/08 05:12:22;;;;;;;;;;;;;;;;;;4937897;29;19946;-86
2023/03/08 05:14:54;;;;;;;;;;;;;;;;;;4953491;29;19923;-86
2023/03/08 05:17:21;;;;;;;;;;;;;;;;;;4937816;29;20017;-88
2023/03/08 05:19:56;;;;;;;;;;;;;;;;;;4953890;29;19927;-87
2023/03/08 05:22:42;;;;;;;;;;;;;;;;;;4952299;29;19929;-87
2023/03/08 05:25:09;;;;;;;;;;;;;;;;;;4937202;29;20320;-87
2023/03/08 05:27:36;;;;;;;;;;;;;;;;;;4955037;29;19946;-91
2023/03/08 05:48:13;;;;;;;;;;;;;;;;;;5001231;23;19977;-91
2023/03/08 05:50:58;;;;;;;;;;;;;;;;;;4991920;28;19927;-91
2023/03/08 05:53:24;;;;;;;;;;;;;;;;;;4978490;28;19966;-92
2023/03/08 05:56:14;;;;;;;;;;;;;;;;;;4977629;28;19932;-91
2023/03/08 05:58:44;;;;;;;;;;;;;;;;;;4962372;28;20153;-91
2023/03/08 06:01:13;;;;;;;;;;;;;;;;;;4954287;28;20006;-91
2023/03/08 06:03:40;;;;;;;;;;;;;;;;;;4946387;29;19927;-91
2023/03/08 06:06:11;;;;;;;;;;;;;;;;;;4946882;29;19923;-91
2023/03/08 06:08:37;;;;;;;;;;;;;;;;;;4943832;29;19915;-92
2023/03/08 06:11:03;;;;;;;;;;;;;;;;;;4949202;29;19978;-93
2023/03/08 06:13:29;;;;;;;;;;;;;;;;;;4959302;29;19933;-91
2023/03/08 06:15:58;;;;;;;;;;;;;;;;;;4959648;28;19950;-92
2023/03/08 06:18:26;;;;;;;;;;;;;;;;;;4980391;28;19915;-92
2023/03/08 06:20:57;;;;;;;;;;;;;;;;;;4980752;28;19915;-92
2023/03/08 06:23:28;;;;;;;;;;;;;;;;;;4981089;28;19984;-92
2023/03/08 06:25:54;;;;;;;;;;;;;;;;;;4965189;29;19977;-91
2023/03/08 06:31:25;;;;;;;;;;;;;;;;;;4978382;28;19917;-91
2023/03/08 06:33:50;;;;;;;;;;;;;;;;;;4954593;29;19926;-91
2023/03/08 06:36:16;;;;;;;;;;;;;;;;;;4954934;29;19926;-91
2023/03/08 06:38:42;;;;;;;;;;;;;;;;;;4970796;29;19933;-91
2023/03/08 06:41:08;;;;;;;;;;;;;;;;;;4970106;29;19933;-91
2023/03/08 06:43:34;;;;;;;;;;;;;;;;;;4956550;28;19965;-91
2023/03/08 06:46:18;;;;;;;;;;;;;;;;;;4979758;28;19926;-91
2023/03/08 06:48:52;;;;;;;;;;;;;;;;;;4979204;28;19941;-91
2023/03/08 06:51:19;;;;;;;;;;;;;;;;;;4963481;28;19910;-91
2023/03/08 06:53:58;;;;;;;;;;;;;;;;;;4964112;28;19928;-90
2023/03/08 06:56:30;;;;;;;;;;;;;;;;;;4975471;29;19926;-91
2023/03/08 06:58:56;;;;;;;;;;;;;;;;;;4947720;29;19922;-91
2023/03/08 07:01:22;;;;;;;;;;;;;;;;;;4952634;29;19946;-91
2023/03/08 07:03:49;;;;;;;;;;;;;;;;;;4953042;29;19926;-91
2023/03/08 07:06:14;;;;;;;;;;;;;;;;;;4939805;29;19994;-92
2023/03/08 07:08:40;;;;;;;;;;;;;;;;;;4942731;29;19941;-91
2023/03/08 07:11:08;;;;;;;;;;;;;;;;;;4953424;29;20411;-91
2023/03/08 07:13:34;;;;;;;;;;;;;;;;;;4953843;29;19922;-92
2023/03/08 07:16:00;;;;;;;;;;;;;;;;;;4968018;29;19923;-91
2023/03/08 07:18:26;;;;;;;;;;;;;;;;;;4935714;29;20258;-92
2023/03/08 07:20:52;;;;;;;;;;;;;;;;;;4936228;29;19923;-92
2023/03/08 07:23:18;;;;;;;;;;;;;;;;;;4952595;29;19922;-92
2023/03/08 07:25:44;;;;;;;;;;;;;;;;;;4952035;29;19946;-93
2023/03/08 07:28:10;;;;;;;;;;;;;;;;;;4944334;29;19922;-92
2023/03/08 07:30:36;;;;;;;;;;;;;;;;;;4934840;29;19927;-91
2023/03/08 07:33:02;;;;;;;;;;;;;;;;;;4952166;29;20041;-92
2023/03/08 07:35:28;;;;;;;;;;;;;;;;;;4966866;29;19918;-92
2023/03/08 07:37:54;;;;;;;;;;;;;;;;;;4953408;29;19926;-92
2023/03/08 07:40:20;;;;;;;;;;;;;;;;;;4952947;29;19923;-91
2023/03/08 07:42:46;;;;;;;;;;;;;;;;;;4949539;29;19923;-93
2023/03/08 07:45:11;;;;;;;;;;;;;;;;;;4951698;29;19946;-93
2023/03/08 07:47:37;;;;;;;;;;;;;;;;;;4950184;29;19923;-92
2023/03/08 07:50:03;;;;;;;;;;;;;;;;;;4961196;29;19969;-92
2023/03/08 07:52:29;;;;;;;;;;;;;;;;;;4971468;29;19962;-92
2023/03/08 07:54:55;;;;;;;;;;;;;;;;;;4970472;29;19922;-92
2023/03/08 07:57:21;;;;;;;;;;;;;;;;;;4955381;29;19936;-93
2023/03/08 07:59:47;;;;;;;;;;;;;;;;;;4946896;29;19930;-93
2023/03/08 08:02:13;;;;;;;;;;;;;;;;;;4968810;29;20010;-93
2023/03/08 08:04:39;;;;;;;;;;;;;;;;;;4954792;29;19953;-92
2023/03/08 08:07:05;;;;;;;;;;;;;;;;;;4953791;29;19922;-91
2023/03/08 08:09:33;;;;;;;;;;;;;;;;;;4943390;29;19926;-91
2023/03/08 08:12:03;;;;;;;;;;;;;;;;;;4937180;29;19970;-92
2023/03/08 08:14:30;;;;;;;;;;;;;;;;;;4939961;29;19929;-91
2023/03/08 08:16:55;;;;;;;;;;;;;;;;;;4947641;29;19914;-92
2023/03/08 08:19:21;;;;;;;;;;;;;;;;;;4953769;29;20037;-92
2023/03/08 08:21:48;;;;;;;;;;;;;;;;;;4957369;29;19934;-92
2023/03/08 08:24:13;;;;;;;;;;;;;;;;;;4967060;28;19923;-92
2023/03/08 08:26:39;;;;;;;;;;;;;;;;;;4952527;29;19930;-92
2023/03/08 08:29:05;;;;;;;;;;;;;;;;;;4953591;29;19922;-93
2023/03/08 08:31:34;;;;;;;;;;;;;;;;;;4953961;29;19993;-93
2023/03/08 08:34:00;;;;;;;;;;;;;;;;;;4953286;29;19922;-94
2023/03/08 08:36:26;;;;;;;;;;;;;;;;;;4969606;29;19934;-94
2023/03/08 08:38:52;;;;;;;;;;;;;;;;;;4959023;29;19942;-94
2023/03/08 08:41:30;;;;;;;;;;;;;;;;;;4971274;29;19930;-92
2023/03/08 08:43:57;;;;;;;;;;;;;;;;;;4949294;29;19923;-94
2023/03/08 08:46:23;;;;;;;;;;;;;;;;;;4952629;29;19923;-93
2023/03/08 08:48:49;;;;;;;;;;;;;;;;;;4953406;29;19938;-95
2023/03/08 08:51:16;;;;;;;;;;;;;;;;;;4952575;29;19929;-92
2023/03/08 08:53:43;;;;;;;;;;;;;;;;;;4950675;29;20049;-95
2023/03/08 08:58:43;;;;;;;;;;;;;;;;;;4968041;29;19930;-93
2023/03/08 09:01:09;;;;;;;;;;;;;;;;;;4954463;29;19922;-94
2023/03/08 09:03:35;;;;;;;;;;;;;;;;;;4957368;29;19925;-92
2023/03/08 09:06:02;;;;;;;;;;;;;;;;;;4959078;29;19922;-93
2023/03/08 09:08:28;;;;;;;;;;;;;;;;;;4956604;29;19923;-92
2023/03/08 09:10:54;;;;;;;;;;;;;;;;;;4958237;29;19933;-93
2023/03/08 09:13:21;;;;;;;;;;;;;;;;;;4956174;29;19962;-94
2023/03/08 09:15:47;;;;;;;;;;;;;;;;;;4958008;29;19918;-93
2023/03/08 09:18:15;;;;;;;;;;;;;;;;;;4975978;28;19930;-93
2023/03/08 09:20:44;;;;;;;;;;;;;;;;;;4974480;29;19922;-94
2023/03/08 09:23:10;;;;;;;;;;;;;;;;;;4950554;29;19922;-93
2023/03/08 09:25:36;;;;;;;;;;;;;;;;;;4953060;29;19923;-93
2023/03/08 09:28:02;;;;;;;;;;;;;;;;;;4952179;29;19923;-93
2023/03/08 09:30:28;;;;;;;;;;;;;;;;;;4941795;29;19922;-94
2023/03/08 09:32:54;;;;;;;;;;;;;;;;;;4952391;29;19923;-93
2023/03/08 09:35:20;;;;;;;;;;;;;;;;;;4951891;29;19981;-93
2023/03/08 09:37:48;;;;;;;;;;;;;;;;;;4962155;28;19966;-93
2023/03/08 09:40:23;;;;;;;;;;;;;;;;;;4972821;29;19922;-94
2023/03/08 09:42:53;;;;;;;;;;;;;;;;;;4980139;28;19936;-96
2023/03/08 09:45:28;;;;;;;;;;;;;;;;;;4974702;29;19907;-93
2023/03/08 09:47:55;;;;;;;;;;;;;;;;;;4980671;28;19921;-94
2023/03/08 10:03:51;;;;;;;;;;;;;;;;;;5136648;23;19930;-92
2023/03/08 11:22:39;;;;;;;;;;;;;;;;;;4962526;29;19926;-89
2023/03/08 11:25:05;;;;;;;;;;;;;;;;;;4947034;29;19929;-89
2023/03/08 11:30:37;;;;;;;;;;;;;;;;;;4962295;29;19978;-90
2023/03/08 11:33:03;;;;;;;;;;;;;;;;;;4938538;29;19938;-90
2023/03/08 11:35:29;;;;;;;;;;;;;;;;;;4927754;29;19923;-89
2023/03/08 11:37:55;;;;;;;;;;;;;;;;;;4939176;29;19973;-89
2023/03/08 11:40:24;;;;;;;;;;;;;;;;;;4932114;29;19933;-89
2023/03/08 11:42:50;;;;;;;;;;;;;;;;;;4944279;29;19923;-88
2023/03/08 11:45:16;;;;;;;;;;;;;;;;;;4950387;28;19922;-89
2023/03/08 11:47:43;;;;;;;;;;;;;;;;;;4966262;28;19922;-90
2023/03/08 11:50:09;;;;;;;;;;;;;;;;;;4959069;29;19923;-90
2023/03/08 11:52:35;;;;;;;;;;;;;;;;;;4962989;29;19929;-90
2023/03/08 11:55:01;;;;;;;;;;;;;;;;;;4947257;29;20399;-90
2023/03/08 11:57:28;;;;;;;;;;;;;;;;;;4947225;29;20393;-90
2023/03/08 12:00:05;;;;;;;;;;;;;;;;;;4946446;29;19928;-90
2023/03/08 12:02:33;;;;;;;;;;;;;;;;;;4939767;29;19922;-91
2023/03/08 12:05:02;;;;;;;;;;;;;;;;;;4951620;28;19929;-90
2023/03/08 12:07:28;;;;;;;;;;;;;;;;;;4959968;28;20308;-90
2023/03/08 12:09:54;;;;;;;;;;;;;;;;;;4966185;28;19929;-90
2023/03/08 12:12:20;;;;;;;;;;;;;;;;;;4973989;28;19922;-91
2023/03/08 12:14:46;;;;;;;;;;;;;;;;;;4983468;28;19977;-90
2023/03/08 12:17:12;;;;;;;;;;;;;;;;;;4954896;29;19926;-90
2023/03/08 12:19:38;;;;;;;;;;;;;;;;;;4946893;29;19996;-90
2023/03/08 12:22:04;;;;;;;;;;;;;;;;;;4946373;29;20104;-90
2023/03/08 12:24:30;;;;;;;;;;;;;;;;;;4947672;29;20016;-90
2023/03/08 12:26:57;;;;;;;;;;;;;;;;;;4946819;29;19923;-89
2023/03/08 12:29:23;;;;;;;;;;;;;;;;;;4945356;29;19922;-90
2023/03/08 12:31:49;;;;;;;;;;;;;;;;;;4928116;29;20069;-89
2023/03/08 12:34:15;;;;;;;;;;;;;;;;;;4927480;29;19923;-90
2023/03/08 12:36:41;;;;;;;;;;;;;;;;;;4927848;29;19926;-89
2023/03/08 12:39:06;;;;;;;;;;;;;;;;;;4931522;29;19929;-90
2023/03/08 12:41:32;;;;;;;;;;;;;;;;;;4943819;29;19927;-90
2023/03/08 12:43:58;;;;;;;;;;;;;;;;;;4927664;29;19933;-90
2023/03/08 12:46:24;;;;;;;;;;;;;;;;;;4928875;29;19929;-90
2023/03/08 12:48:50;;;;;;;;;;;;;;;;;;4947198;29;19922;-90
2023/03/08 12:51:16;;;;;;;;;;;;;;;;;;4944679;29;19929;-90
2023/03/08 12:53:56;;;;;;;;;;;;;;;;;;4958321;28;19926;-90
2023/03/08 12:56:23;;;;;;;;;;;;;;;;;;4942839;28;19931;-90
2023/03/08 12:58:49;;;;;;;;;;;;;;;;;;4952677;29;19926;-88
2023/03/08 13:04:03;;;;;;;;;;;;;;;;;;4952152;29;20330;-89
2023/03/08 13:06:28;;;;;;;;;;;;;;;;;;4928697;29;19927;-89
2023/03/08 13:08:54;;;;;;;;;;;;;;;;;;4944131;29;19922;-89
2023/03/08 13:11:20;;;;;;;;;;;;;;;;;;4948290;29;19969;-89
2023/03/08 13:13:46;;;;;;;;;;;;;;;;;;4951340;28;19922;-89
2023/03/08 13:16:12;;;;;;;;;;;;;;;;;;4962947;28;19927;-89
2023/03/08 13:18:42;;;;;;;;;;;;;;;;;;4936840;29;20387;-87
2023/03/08 13:21:08;;;;;;;;;;;;;;;;;;4936070;29;19923;-88
2023/03/08 13:23:34;;;;;;;;;;;;;;;;;;4931768;29;20017;-88
2023/03/08 13:26:00;;;;;;;;;;;;;;;;;;4949394;29;19923;-89
2023/03/08 13:28:26;;;;;;;;;;;;;;;;;;4942966;29;20340;-88
2023/03/08 13:30:55;;;;;;;;;;;;;;;;;;4959143;29;19922;-90
2023/03/08 13:33:33;;;;;;;;;;;;;;;;;;4952732;29;20336;-90
2023/03/08 13:36:05;;;;;;;;;;;;;;;;;;4954492;29;19922;-89
2023/03/08 13:38:33;;;;;;;;;;;;;;;;;;4953606;29;19973;-89
2023/03/08 13:40:59;;;;;;;;;;;;;;;;;;4952619;29;19926;-89
2023/03/08 13:43:26;;;;;;;;;;;;;;;;;;4973758;29;19937;-90
2023/03/08 13:45:52;;;;;;;;;;;;;;;;;;4950085;29;19945;-89
2023/03/08 13:48:18;;;;;;;;;;;;;;;;;;4950490;29;19939;-89
2023/03/08 13:50:49;;;;;;;;;;;;;;;;;;4949719;29;19923;-89
2023/03/08 13:56:35;;;;;;;;;;;;;;;;;;4971437;28;19937;-90
2023/03/08 13:59:01;;;;;;;;;;;;;;;;;;4923172;29;19959;-89
2023/03/08 14:01:28;;;;;;;;;;;;;;;;;;4937912;29;19978;-88
2023/03/08 14:07:11;;;;;;;;;;;;;;;;;;;;;
2023/03/08 14:09:37;;;;;;;;;;;;;;;;;;4963616;28;19923;-91
2023/03/08 14:12:12;;;;;;;;;;;;;;;;;;4948751;29;19985;-88
2023/03/08 14:14:39;;;;;;;;;;;;;;;;;;4947446;29;19943;-89
2023/03/08 14:17:07;;;;;;;;;;;;;;;;;;4967258;29;19927;-90
2023/03/08 14:19:34;;;;;;;;;;;;;;;;;;4970876;28;19933;-88
2023/03/08 14:22:00;;;;;;;;;;;;;;;;;;4978959;28;19926;-88
2023/03/08 14:27:23;;;;;;;;;;;;;;;;;;4959911;28;20446;-89
2023/03/08 14:32:57;;;;;;;;;;;;;;;;;;4969584;28;19923;-88
2023/03/08 14:35:25;;;;;;;;;;;;;;;;;;4957685;29;19936;-89
2023/03/08 14:37:54;;;;;;;;;;;;;;;;;;4952952;29;20021;-88
2023/03/08 14:40:21;;;;;;;;;;;;;;;;;;4979096;28;19982;-88
2023/03/08 14:42:47;;;;;;;;;;;;;;;;;;4950079;28;19929;-90
2023/03/08 14:45:16;;;;;;;;;;;;;;;;;;4969775;28;19966;-88
2023/03/08 14:47:42;;;;;;;;;;;;;;;;;;4958270;28;19923;-89
2023/03/08 14:50:08;;;;;;;;;;;;;;;;;;4956996;29;19954;-89
2023/03/08 14:52:40;;;;;;;;;;;;;;;;;;4961110;28;19930;-89
2023/03/08 14:58:13;;;;;;;;;;;;;;;;;;4991339;28;19929;-89
2023/03/08 15:18:55;;;;;;;;;;;;;;;;;;4969150;29;19929;-91
2023/03/08 15:21:54;;;;;;;;;;;;;;;;;;4922712;29;19970;-90
2023/03/08 15:24:42;;;;;;;;;;;;;;;;;;4952044;29;20317;-90
2023/03/08 15:27:29;;;;;;;;;;;;;;;;;;4959613;29;19922;-90
2023/03/08 15:33:19;;;;;;;;;;;;;;;;;;4969956;28;19926;-90
2023/03/08 15:35:45;;;;;;;;;;;;;;;;;;4966593;28;19922;-89
2023/03/08 15:38:34;;;;;;;;;;;;;;;;;;4978316;28;20290;-88
2023/03/08 15:41:03;;;;;;;;;;;;;;;;;;4961756;28;19929;-88
2023/03/08 15:43:34;;;;;;;;;;;;;;;;;;4952052;28;19966;-88
2023/03/08 15:52:11;;;;;;;;;;;;;;;;;;4966518;29;19969;-89
2023/03/08 15:54:49;;;;;;;;;;;;;;;;;;4965966;28;19969;-90
2023/03/08 15:57:15;;;;;;;;;;;;;;;;;;4962984;29;19926;-85
2023/03/08 16:08:23;;;;;;;;;;;;;;;;;;4972809;28;19927;-89
2023/03/08 16:10:53;;;;;;;;;;;;;;;;;;4937268;29;19922;-89
2023/03/08 16:13:28;;;;;;;;;;;;;;;;;;4930432;29;19922;-89
2023/03/08 16:19:18;;;;;;;;;;;;;;;;;;4962567;28;19926;-90
2023/03/08 16:21:44;;;;;;;;;;;;;;;;;;4957180;29;19990;-88
2023/03/08 16:27:13;;;;;;;;;;;;;;;;;;4944371;28;19968;-89
2023/03/08 16:29:45;;;;;;;;;;;;;;;;;;4983881;28;20331;-92
2023/03/08 16:32:13;;;;;;;;;;;;;;;;;;4945930;29;19922;-88
2023/03/08 16:34:39;;;;;;;;;;;;;;;;;;4947617;29;20420;-89
2023/03/08 16:37:05;;;;;;;;;;;;;;;;;;4947189;29;19933;-89
2023/03/08 16:39:34;;;;;;;;;;;;;;;;;;4962902;29;19923;-90
2023/03/08 16:42:00;;;;;;;;;;;;;;;;;;4946181;29;19995;-89
2023/03/08 16:44:26;;;;;;;;;;;;;;;;;;4942802;29;20035;-89
2023/03/08 16:46:52;;;;;;;;;;;;;;;;;;4944955;29;19922;-89
2023/03/08 16:54:41;;;;;;;;;;;;;;;;;;4962824;28;19923;-88
2023/03/08 16:57:23;;;;;;;;;;;;;;;;;;4960250;29;20028;-89
2023/03/08 16:59:49;;;;;;;;;;;;;;;;;;4947189;29;19932;-88
2023/03/08 17:02:15;;;;;;;;;;;;;;;;;;4947072;29;19969;-88
2023/03/08 17:04:43;;;;;;;;;;;;;;;;;;4943417;29;20621;-88
2023/03/08 17:07:14;;;;;;;;;;;;;;;;;;4953053;28;19937;-90
2023/03/08 17:09:40;;;;;;;;;;;;;;;;;;4952344;28;19930;-88
2023/03/08 17:12:05;;;;;;;;;;;;;;;;;;4943925;29;19923;-89
2023/03/08 17:14:31;;;;;;;;;;;;;;;;;;4944388;29;19923;-89
2023/03/08 17:16:57;;;;;;;;;;;;;;;;;;4946159;29;19927;-88
2023/03/08 17:19:25;;;;;;;;;;;;;;;;;;4945927;29;19922;-89
2023/03/08 17:21:51;;;;;;;;;;;;;;;;;;4947007;29;20400;-89
2023/03/08 17:24:16;;;;;;;;;;;;;;;;;;4939302;29;19933;-89
2023/03/08 17:26:42;;;;;;;;;;;;;;;;;;4945896;29;19923;-89
2023/03/08 17:29:09;;;;;;;;;;;;;;;;;;4945388;29;19926;-89
2023/03/08 17:31:35;;;;;;;;;;;;;;;;;;4945887;29;19923;-89
2023/03/08 17:34:01;;;;;;;;;;;;;;;;;;4948769;29;19935;-89
2023/03/08 17:36:39;;;;;;;;;;;;;;;;;;4943936;29;19922;-89
2023/03/08 17:39:05;;;;;;;;;;;;;;;;;;4946471;29;19946;-89
2023/03/08 17:41:34;;;;;;;;;;;;;;;;;;4940254;29;19977;-89
2023/03/08 17:44:00;;;;;;;;;;;;;;;;;;4945698;29;19929;-89
2023/03/08 17:46:26;;;;;;;;;;;;;;;;;;4945874;29;19954;-89
2023/03/08 17:48:52;;;;;;;;;;;;;;;;;;4944229;29;19922;-89
2023/03/08 17:54:34;;;;;;;;;;;;;;;;;;4975929;28;20312;-89
2023/03/08 17:57:00;;;;;;;;;;;;;;;;;;4946935;29;19937;-89
2023/03/08 17:59:26;;;;;;;;;;;;;;;;;;4948243;29;19922;-88
2023/03/08 18:01:52;;;;;;;;;;;;;;;;;;4965519;28;19923;-89
2023/03/08 18:04:20;;;;;;;;;;;;;;;;;;4971341;28;19930;-90
2023/03/08 18:06:46;;;;;;;;;;;;;;;;;;4949234;28;20005;-88
2023/03/08 18:09:12;;;;;;;;;;;;;;;;;;4949443;28;20380;-89
2023/03/08 18:11:40;;;;;;;;;;;;;;;;;;4953842;28;20105;-88
2023/03/08 18:14:06;;;;;;;;;;;;;;;;;;4965271;28;19922;-89
2023/03/08 18:16:32;;;;;;;;;;;;;;;;;;4947251;29;20274;-88
2023/03/08 18:18:58;;;;;;;;;;;;;;;;;;4946893;29;19950;-88
2023/03/08 18:21:24;;;;;;;;;;;;;;;;;;4940404;29;19985;-89
2023/03/08 18:23:57;;;;;;;;;;;;;;;;;;4947116;29;20017;-89
2023/03/08 18:26:25;;;;;;;;;;;;;;;;;;4938298;29;19982;-89
2023/03/08 18:28:51;;;;;;;;;;;;;;;;;;4946781;29;19923;-89
2023/03/08 18:31:19;;;;;;;;;;;;;;;;;;4947604;29;19936;-87
2023/03/08 18:33:45;;;;;;;;;;;;;;;;;;4947317;29;19965;-87
2023/03/08 18:36:11;;;;;;;;;;;;;;;;;;4947601;29;19922;-88
2023/03/08 18:38:37;;;;;;;;;;;;;;;;;;4946567;29;19934;-88
2023/03/08 18:41:03;;;;;;;;;;;;;;;;;;4963284;29;20492;-87
2023/03/08 18:43:29;;;;;;;;;;;;;;;;;;4947102;29;19989;-88
2023/03/08 18:48:50;;;;;;;;;;;;;;;;;;4960620;29;19988;-89
2023/03/08 18:51:17;;;;;;;;;;;;;;;;;;4975039;29;19922;-87
2023/03/08 19:00:00;;;;;;;;;;;;;;;;;;4982001;28;20390;-88
2023/03/08 19:02:45;;;;;;;;;;;;;;;;;;4963219;29;19953;-88
2023/03/08 19:05:11;;;;;;;;;;;;;;;;;;4945925;29;19922;-88
2023/03/08 19:07:37;;;;;;;;;;;;;;;;;;4946005;29;19929;-88
2023/03/08 19:10:03;;;;;;;;;;;;;;;;;;4944634;29;19946;-89
2023/03/08 19:12:29;;;;;;;;;;;;;;;;;;4946357;29;19927;-88
2023/03/08 19:15:05;;;;;;;;;;;;;;;;;;4943576;29;19984;-88
2023/03/08 19:17:31;;;;;;;;;;;;;;;;;;4946584;29;19926;-88
2023/03/08 19:19:57;;;;;;;;;;;;;;;;;;4945686;29;20008;-88
2023/03/08 19:22:23;;;;;;;;;;;;;;;;;;4945257;29;19962;-88
2023/03/08 19:24:49;;;;;;;;;;;;;;;;;;4962113;29;19927;-88
2023/03/08 19:27:15;;;;;;;;;;;;;;;;;;4946098;29;20495;-88
2023/03/08 19:29:41;;;;;;;;;;;;;;;;;;4947034;29;19973;-88
2023/03/08 19:34:57;;;;;;;;;;;;;;;;;;4959030;29;20265;-88
2023/03/08 19:37:23;;;;;;;;;;;;;;;;;;4935133;29;19927;-89
2023/03/08 19:39:49;;;;;;;;;;;;;;;;;;4938745;29;19931;-88
2023/03/08 19:42:15;;;;;;;;;;;;;;;;;;4928545;29;20333;-88
2023/03/08 19:44:41;;;;;;;;;;;;;;;;;;4934029;29;19974;-87
2023/03/08 19:47:07;;;;;;;;;;;;;;;;;;4946435;29;19922;-89
2023/03/08 19:49:33;;;;;;;;;;;;;;;;;;4946343;29;19922;-88
2023/03/08 19:51:59;;;;;;;;;;;;;;;;;;4945969;29;19926;-88
2023/03/08 19:54:28;;;;;;;;;;;;;;;;;;4947596;28;19980;-88
2023/03/08 19:56:55;;;;;;;;;;;;;;;;;;4963761;29;19932;-89
2023/03/08 19:59:21;;;;;;;;;;;;;;;;;;4946251;29;20451;-89
2023/03/08 20:01:46;;;;;;;;;;;;;;;;;;4964212;29;20061;-88
2023/03/08 20:04:13;;;;;;;;;;;;;;;;;;4971752;28;20002;-88
2023/03/08 20:06:39;;;;;;;;;;;;;;;;;;4960059;29;19969;-89
2023/03/08 20:09:21;;;;;;;;;;;;;;;;;;4940441;29;19977;-89
2023/03/08 20:11:49;;;;;;;;;;;;;;;;;;4939302;29;19922;-89
2023/03/08 20:14:15;;;;;;;;;;;;;;;;;;4941268;29;20009;-89